Portscatho, United Kingdom
Current Conditions -  °F | °C
As of 5:50 AM on Wednesday 22 Oct 2014 (Local Time) from EGDR Reporting Station
Scattered Clouds Scattered Clouds  
Wind Chill: 11°   Ceiling: Unl
Heat Index: 11°   Visibility: 6mi
Dew Point:   Wind: 8mph
Humidity: 67%   Direction: 270°W
Pressure: 30.39"   Gusts: NA
Location:  50.17°N, 4.97°W
Report Text: EGDR 220450Z 27007KT 9999 FEW030 SCT045 11/05 Q1029 BLU NOSIG
Loading
Personal Weather Stations






























Interactive Weather Map
Tropical Storm Tracking
New forecast layout! Learn more

10-Day Weather Forecast

Advertisements
Track Severe Weather on mobile